createdAt,value
2022-11-12T00:00:11.066Z,0.00
2022-11-12T00:01:11.063Z,0.00
2022-11-12T00:02:11.133Z,0.00
2022-11-12T00:03:11.075Z,0.00
2022-11-12T00:04:11.062Z,0.00
2022-11-12T00:05:11.066Z,0.00
2022-11-12T00:06:11.076Z,0.00
2022-11-12T00:07:11.095Z,0.00
2022-11-12T00:08:11.061Z,0.00
2022-11-12T00:09:11.066Z,0.00
2022-11-12T00:10:11.069Z,0.00
2022-11-12T00:11:11.068Z,0.00
2022-11-12T00:12:11.073Z,0.00
2022-11-12T00:13:11.066Z,0.00
2022-11-12T00:14:11.068Z,0.00
2022-11-12T00:15:11.073Z,0.00
2022-11-12T00:16:11.064Z,0.00
2022-11-12T00:17:11.068Z,0.00
2022-11-12T00:18:11.077Z,0.00
2022-11-12T00:19:11.066Z,0.00
2022-11-12T00:20:11.067Z,0.00
2022-11-12T00:21:11.071Z,0.00
2022-11-12T00:22:11.057Z,0.00
2022-11-12T00:23:11.061Z,0.00
2022-11-12T00:24:11.068Z,0.00
2022-11-12T00:25:11.062Z,0.00
2022-11-12T00:26:11.058Z,0.00
2022-11-12T00:27:11.068Z,0.00
2022-11-12T00:28:11.061Z,0.00
2022-11-12T00:29:11.057Z,0.00
2022-11-12T00:30:11.064Z,0.00
2022-11-12T00:31:11.063Z,0.00
2022-11-12T00:32:11.058Z,0.00
2022-11-12T00:33:11.060Z,0.00
2022-11-12T00:34:11.064Z,0.00
2022-11-12T00:35:13.717Z,0.00
2022-11-12T00:36:11.061Z,0.00
2022-11-12T00:37:11.062Z,0.00
2022-11-12T00:38:11.059Z,0.00
2022-11-12T00:39:11.063Z,0.00
2022-11-12T00:40:11.069Z,0.00
2022-11-12T00:41:11.060Z,0.00
2022-11-12T00:42:11.058Z,0.00
2022-11-12T00:43:11.069Z,0.00
2022-11-12T00:44:11.063Z,0.00
2022-11-12T00:45:11.059Z,0.00
2022-11-12T00:46:11.069Z,0.00
2022-11-12T00:47:11.064Z,0.00
2022-11-12T00:48:11.060Z,0.00
2022-11-12T00:49:11.063Z,0.00
2022-11-12T00:50:11.070Z,0.00
2022-11-12T00:51:11.075Z,0.00
2022-11-12T00:52:11.063Z,0.00
2022-11-12T00:53:11.071Z,0.00
2022-11-12T00:54:11.062Z,0.00
2022-11-12T00:55:11.078Z,0.00
2022-11-12T00:56:11.071Z,0.00
2022-11-12T00:57:11.063Z,0.00
2022-11-12T00:58:11.064Z,0.00
2022-11-12T00:59:11.067Z,0.00
2022-11-12T01:00:14.064Z,0.00
2022-11-12T01:01:13.090Z,0.00
2022-11-12T01:02:11.073Z,0.00
2022-11-12T01:03:11.065Z,0.00
2022-11-12T01:04:11.084Z,0.00
2022-11-12T01:05:11.074Z,0.00
2022-11-12T01:06:15.067Z,0.00
2022-11-12T01:07:11.121Z,0.00
2022-11-12T01:08:11.064Z,0.00
2022-11-12T01:09:11.065Z,0.00
2022-11-12T01:10:11.064Z,0.00
2022-11-12T01:11:11.065Z,0.00
2022-11-12T01:12:11.073Z,0.00
2022-11-12T01:13:11.063Z,0.00
2022-11-12T01:14:11.068Z,0.00
2022-11-12T01:15:11.074Z,0.00
2022-11-12T01:16:17.065Z,0.00
2022-11-12T01:17:11.069Z,0.00
2022-11-12T01:18:11.073Z,0.00
2022-11-12T01:19:11.065Z,0.00
2022-11-12T01:20:11.068Z,0.00
2022-11-12T01:21:11.073Z,0.00
2022-11-12T01:22:11.059Z,0.00
2022-11-12T01:23:11.065Z,0.00
2022-11-12T01:24:11.068Z,0.00
2022-11-12T01:25:11.062Z,0.00
2022-11-12T01:26:11.064Z,0.00
2022-11-12T01:27:11.067Z,0.00
2022-11-12T01:28:11.061Z,0.00
2022-11-12T01:29:11.059Z,0.00
2022-11-12T01:30:11.067Z,0.00
2022-11-12T01:31:19.069Z,0.00
2022-11-12T01:32:11.064Z,0.00
2022-11-12T01:33:11.060Z,0.00
2022-11-12T01:34:11.063Z,0.00
2022-11-12T01:35:11.059Z,0.00
2022-11-12T01:36:11.075Z,0.00
2022-11-12T01:37:11.062Z,0.00
2022-11-12T01:38:11.061Z,0.00
2022-11-12T01:39:11.062Z,0.00
2022-11-12T01:40:11.066Z,0.00
2022-11-12T01:41:12.062Z,0.00
2022-11-12T01:42:11.065Z,0.00
2022-11-12T01:43:15.070Z,0.00
2022-11-12T01:44:16.060Z,0.00
2022-11-12T01:45:15.062Z,0.00
2022-11-12T01:46:19.062Z,0.00
2022-11-12T01:47:21.071Z,0.00
2022-11-12T01:48:15.066Z,0.00
2022-11-12T01:49:14.064Z,0.00
2022-11-12T01:50:19.065Z,0.00
2022-11-12T01:51:13.063Z,0.00
2022-11-12T01:52:19.068Z,0.00
2022-11-12T01:53:11.063Z,0.00
2022-11-12T01:54:13.060Z,0.00
2022-11-12T01:55:13.069Z,0.00
2022-11-12T01:56:11.064Z,0.00
2022-11-12T01:57:12.063Z,0.00
2022-11-12T01:58:18.066Z,0.00
2022-11-12T01:59:18.064Z,0.00
2022-11-12T02:00:11.078Z,0.00
2022-11-12T02:01:11.096Z,0.00
2022-11-12T02:02:11.070Z,0.00
2022-11-12T02:03:16.066Z,0.00
2022-11-12T02:04:11.066Z,0.00
2022-11-12T02:05:11.065Z,0.00
2022-11-12T02:06:13.066Z,0.00
2022-11-12T02:07:11.175Z,0.00
2022-11-12T02:08:11.082Z,0.00
2022-11-12T02:09:11.068Z,0.00
2022-11-12T02:10:11.064Z,0.00
2022-11-12T02:11:15.067Z,0.00
2022-11-12T02:12:11.072Z,0.00
2022-11-12T02:13:15.064Z,0.00
2022-11-12T02:14:11.065Z,0.00
2022-11-12T02:15:11.068Z,0.00
2022-11-12T02:16:11.067Z,0.00
2022-11-12T02:17:11.064Z,0.00
2022-11-12T02:18:11.065Z,0.00
2022-11-12T02:19:15.068Z,0.00
2022-11-12T02:20:13.066Z,0.00
2022-11-12T02:21:11.058Z,0.00
2022-11-12T02:22:11.062Z,0.00
2022-11-12T02:23:11.059Z,0.00
2022-11-12T02:24:19.061Z,0.00
2022-11-12T02:25:13.084Z,0.00
2022-11-12T02:26:11.063Z,0.00
2022-11-12T02:27:11.061Z,0.00
2022-11-12T02:28:11.059Z,0.00
2022-11-12T02:29:11.058Z,0.00
2022-11-12T02:30:11.055Z,0.00
2022-11-12T02:31:11.059Z,0.00
2022-11-12T02:32:11.059Z,0.00
2022-11-12T02:33:11.058Z,0.00
2022-11-12T02:34:11.059Z,0.00
2022-11-12T02:35:11.062Z,0.00
2022-11-12T02:36:11.056Z,0.00
2022-11-12T02:37:11.063Z,0.00
2022-11-12T02:38:11.059Z,0.00
2022-11-12T02:39:11.059Z,0.00
2022-11-12T02:40:11.062Z,0.00
2022-11-12T02:41:11.061Z,0.00
2022-11-12T02:42:11.061Z,0.00
2022-11-12T02:43:11.063Z,0.00
2022-11-12T02:44:11.062Z,0.00
2022-11-12T02:45:11.065Z,0.00
2022-11-12T02:46:11.064Z,0.00
2022-11-12T02:47:11.060Z,0.00
2022-11-12T02:48:15.149Z,0.00
2022-11-12T02:49:13.417Z,0.00
2022-11-12T02:50:11.069Z,0.00
2022-11-12T02:51:11.059Z,0.00
2022-11-12T02:52:11.063Z,0.00
2022-11-12T02:53:11.068Z,0.00
2022-11-12T02:54:11.059Z,0.00
2022-11-12T02:55:11.063Z,0.00
2022-11-12T02:56:11.075Z,0.00
2022-11-12T02:57:11.063Z,0.00
2022-11-12T02:58:11.065Z,0.00
2022-11-12T02:59:11.069Z,0.00
2022-11-12T03:00:11.062Z,0.00
2022-11-12T03:01:11.155Z,0.00
2022-11-12T03:02:11.068Z,0.00
2022-11-12T03:03:11.064Z,0.00
2022-11-12T03:04:11.060Z,0.00
2022-11-12T03:05:11.062Z,0.00
2022-11-12T03:06:11.065Z,0.00
2022-11-12T03:07:11.112Z,0.00
2022-11-12T03:08:11.065Z,0.00
2022-11-12T03:09:11.063Z,0.00
2022-11-12T03:10:11.063Z,0.00
2022-11-12T03:11:11.064Z,0.00
2022-11-12T03:12:11.065Z,0.00
2022-11-12T03:13:11.063Z,0.00
2022-11-12T03:14:11.063Z,0.00
2022-11-12T03:15:11.066Z,0.00
2022-11-12T03:16:11.064Z,0.00
2022-11-12T03:17:11.064Z,0.00
2022-11-12T03:18:11.067Z,0.00
2022-11-12T03:19:11.064Z,0.00
2022-11-12T03:20:11.065Z,0.00
2022-11-12T03:21:11.062Z,0.00
2022-11-12T03:22:11.057Z,0.00
2022-11-12T03:23:11.063Z,0.00
2022-11-12T03:24:11.067Z,0.00
2022-11-12T03:25:11.057Z,0.00
2022-11-12T03:26:11.062Z,0.00
2022-11-12T03:27:11.068Z,0.00
2022-11-12T03:28:13.075Z,0.00
2022-11-12T03:29:11.062Z,0.00
2022-11-12T03:30:11.064Z,0.00
2022-11-12T03:31:11.062Z,0.00
2022-11-12T03:32:11.062Z,0.00
2022-11-12T03:33:11.068Z,0.00
2022-11-12T03:34:11.061Z,0.00
2022-11-12T03:35:11.057Z,0.00
2022-11-12T03:36:11.062Z,0.00
2022-11-12T03:37:13.063Z,0.00
2022-11-12T03:38:11.057Z,0.00
2022-11-12T03:39:11.062Z,0.00
2022-11-12T03:40:11.063Z,0.00
2022-11-12T03:41:11.062Z,0.00
2022-11-12T03:42:11.062Z,0.00
2022-11-12T03:43:11.064Z,0.00
2022-11-12T03:44:11.062Z,0.00
2022-11-12T03:45:11.063Z,0.00
2022-11-12T03:46:11.063Z,0.00
2022-11-12T03:47:11.061Z,0.00
2022-11-12T03:48:11.062Z,0.00
2022-11-12T03:49:11.064Z,0.00
2022-11-12T03:50:11.064Z,0.00
2022-11-12T03:51:11.063Z,0.00
2022-11-12T03:52:11.070Z,0.00
2022-11-12T03:53:11.062Z,0.00
2022-11-12T03:54:11.068Z,0.00
2022-11-12T03:55:11.071Z,0.00
2022-11-12T03:56:11.065Z,0.00
2022-11-12T03:57:11.060Z,0.00
2022-11-12T03:58:11.065Z,0.00
2022-11-12T03:59:11.063Z,0.00
2022-11-12T04:00:11.062Z,0.00
2022-11-12T04:01:11.102Z,0.00
2022-11-12T04:02:11.066Z,0.00
2022-11-12T04:03:11.064Z,0.00
2022-11-12T04:04:11.065Z,0.00
2022-11-12T04:05:15.065Z,0.00
2022-11-12T04:06:15.067Z,0.00
2022-11-12T04:07:15.131Z,0.00
2022-11-12T04:08:15.070Z,0.00
2022-11-12T04:09:11.066Z,0.00
2022-11-12T04:10:11.063Z,0.00
2022-11-12T04:11:11.067Z,0.00
2022-11-12T04:12:15.073Z,0.00
2022-11-12T04:13:15.066Z,0.00
2022-11-12T04:14:11.065Z,0.00
2022-11-12T04:15:11.064Z,0.00
2022-11-12T04:16:16.066Z,0.00
2022-11-12T04:17:15.065Z,0.00
2022-11-12T04:18:15.062Z,0.00
2022-11-12T04:19:15.065Z,0.00
2022-11-12T04:20:15.073Z,0.00
2022-11-12T04:21:16.062Z,0.00
2022-11-12T04:22:11.063Z,0.00
2022-11-12T04:23:11.061Z,0.00
2022-11-12T04:24:11.064Z,0.00
2022-11-12T04:25:15.061Z,0.00
2022-11-12T04:26:17.066Z,0.00
2022-11-12T04:27:12.065Z,0.00
2022-11-12T04:28:11.065Z,0.00
2022-11-12T04:29:15.062Z,0.00
2022-11-12T04:30:15.062Z,0.00
2022-11-12T04:31:11.069Z,0.00
2022-11-12T04:32:11.063Z,0.00
2022-11-12T04:33:11.066Z,0.00
2022-11-12T04:34:15.075Z,0.00
2022-11-12T04:35:11.142Z,0.00
2022-11-12T04:36:11.062Z,0.00
2022-11-12T04:37:11.064Z,0.00
2022-11-12T04:38:11.064Z,0.00
2022-11-12T04:39:11.061Z,0.00
2022-11-12T04:40:18.065Z,0.00
2022-11-12T04:41:15.067Z,0.00
2022-11-12T04:42:15.065Z,0.00
2022-11-12T04:43:18.071Z,0.00
2022-11-12T04:44:15.070Z,0.00
2022-11-12T04:45:12.067Z,0.00
2022-11-12T04:46:11.065Z,0.00
2022-11-12T04:47:11.062Z,0.00
2022-11-12T04:48:11.064Z,0.00
2022-11-12T04:49:11.072Z,0.00
2022-11-12T04:50:15.062Z,0.00
2022-11-12T04:51:17.066Z,0.00
2022-11-12T04:52:11.069Z,0.00
2022-11-12T04:53:11.068Z,0.00
2022-11-12T04:54:11.065Z,0.00
2022-11-12T04:55:11.067Z,0.00
2022-11-12T04:56:11.067Z,0.00
2022-11-12T04:57:11.063Z,0.00
2022-11-12T04:58:11.067Z,0.00
2022-11-12T04:59:11.072Z,0.00
2022-11-12T05:00:11.064Z,0.00
2022-11-12T05:01:11.104Z,0.00
2022-11-12T05:02:11.073Z,0.00
2022-11-12T05:03:11.066Z,0.00
2022-11-12T05:04:11.064Z,0.00
2022-11-12T05:05:11.070Z,0.00
2022-11-12T05:06:17.067Z,0.00
2022-11-12T05:07:11.119Z,0.00
2022-11-12T05:08:11.072Z,0.00
2022-11-12T05:09:11.067Z,0.00
2022-11-12T05:10:11.064Z,0.00
2022-11-12T05:11:12.935Z,0.00
2022-11-12T05:12:11.073Z,0.00
2022-11-12T05:13:11.066Z,0.00
2022-11-12T05:14:11.070Z,0.00
2022-11-12T05:15:11.074Z,0.00
2022-11-12T05:16:11.066Z,0.00
2022-11-12T05:17:11.072Z,0.00
2022-11-12T05:18:11.069Z,0.00
2022-11-12T05:19:11.071Z,0.00
2022-11-12T05:20:13.070Z,0.00
2022-11-12T05:21:15.061Z,0.00
2022-11-12T05:22:21.905Z,0.00
2022-11-12T05:23:13.844Z,0.00
2022-11-12T05:24:27.350Z,0.00
2022-11-12T05:25:13.121Z,0.00
2022-11-12T05:26:11.060Z,0.00
2022-11-12T05:27:15.062Z,0.00
2022-11-12T05:28:11.060Z,0.00
2022-11-12T05:29:11.068Z,0.00
2022-11-12T05:30:11.057Z,0.00
2022-11-12T05:31:11.064Z,0.00
2022-11-12T05:32:14.068Z,0.00
2022-11-12T05:33:11.061Z,0.00
2022-11-12T05:34:11.057Z,0.00
2022-11-12T05:35:11.060Z,0.00
2022-11-12T05:36:11.062Z,0.00
2022-11-12T05:37:11.060Z,0.00
2022-11-12T05:38:11.063Z,0.00
2022-11-12T05:39:11.068Z,0.00
2022-11-12T05:40:11.061Z,0.00
2022-11-12T05:41:12.987Z,0.00
2022-11-12T05:42:13.924Z,0.00
2022-11-12T05:43:11.063Z,0.00
2022-11-12T05:44:11.066Z,0.00
2022-11-12T05:45:11.061Z,0.00
2022-11-12T05:46:11.071Z,0.00
2022-11-12T05:47:11.061Z,0.00
2022-11-12T05:48:11.063Z,0.00
2022-11-12T05:49:11.070Z,0.00
2022-11-12T05:50:11.060Z,0.00
2022-11-12T05:51:13.620Z,0.00
2022-11-12T05:52:11.066Z,0.00
2022-11-12T05:53:11.063Z,0.00
2022-11-12T05:54:11.058Z,0.00
2022-11-12T05:55:11.069Z,0.00
2022-11-12T05:56:11.065Z,0.00
2022-11-12T05:57:11.060Z,0.00
2022-11-12T05:58:11.069Z,0.00
2022-11-12T05:59:11.064Z,0.00
2022-11-12T06:00:11.060Z,0.00
2022-11-12T06:01:11.079Z,0.00
2022-11-12T06:02:11.101Z,0.00
2022-11-12T06:03:11.062Z,0.00
2022-11-12T06:04:13.065Z,0.00
2022-11-12T06:05:11.070Z,0.00
2022-11-12T06:06:11.064Z,0.00
2022-11-12T06:07:11.172Z,0.00
2022-11-12T06:08:11.077Z,0.00
2022-11-12T06:09:11.063Z,0.00
2022-11-12T06:10:12.799Z,0.00
2022-11-12T06:11:13.081Z,0.00
2022-11-12T06:12:12.065Z,0.00
2022-11-12T06:13:11.061Z,0.00
2022-11-12T06:14:11.065Z,0.00
2022-11-12T06:15:11.066Z,0.00
2022-11-12T06:16:11.065Z,0.00
2022-11-12T06:17:11.066Z,0.00
2022-11-12T06:18:11.067Z,0.00
2022-11-12T06:19:11.066Z,0.00
2022-11-12T06:20:11.070Z,0.00
2022-11-12T06:21:15.060Z,0.00
2022-11-12T06:22:11.059Z,0.00
2022-11-12T06:23:11.060Z,0.00
2022-11-12T06:24:11.061Z,0.00
2022-11-12T06:25:11.060Z,0.00
2022-11-12T06:26:11.056Z,0.00
2022-11-12T06:27:11.062Z,0.00
2022-11-12T06:28:11.102Z,0.00
2022-11-12T06:29:11.059Z,0.00
2022-11-12T06:30:11.059Z,0.00
2022-11-12T06:31:11.060Z,0.00
2022-11-12T06:32:11.058Z,0.00
2022-11-12T06:33:11.060Z,0.00
2022-11-12T06:34:11.061Z,0.00
2022-11-12T06:35:11.058Z,0.00
2022-11-12T06:36:11.059Z,0.00
2022-11-12T06:37:11.060Z,0.00
2022-11-12T06:38:11.057Z,0.00
2022-11-12T06:39:11.064Z,0.00
2022-11-12T06:40:11.067Z,0.00
2022-11-12T06:41:11.062Z,0.00
2022-11-12T06:42:11.063Z,0.00
2022-11-12T06:43:11.061Z,0.00
2022-11-12T06:44:11.060Z,0.00
2022-11-12T06:45:11.056Z,0.00
2022-11-12T06:46:15.067Z,0.00
2022-11-12T06:47:11.060Z,0.00
2022-11-12T06:48:11.059Z,0.00
2022-11-12T06:49:11.059Z,0.00
2022-11-12T06:50:11.062Z,0.00
2022-11-12T06:51:17.060Z,0.00
2022-11-12T06:52:16.234Z,0.00
2022-11-12T06:53:13.183Z,0.00
2022-11-12T06:54:11.061Z,0.00
2022-11-12T06:55:11.070Z,0.00
2022-11-12T06:56:11.061Z,0.00
2022-11-12T06:57:11.064Z,0.00
2022-11-12T06:58:11.065Z,0.00
2022-11-12T06:59:11.063Z,0.00
2022-11-12T07:00:11.064Z,0.00
2022-11-12T07:01:14.143Z,0.00
2022-11-12T07:02:12.066Z,0.00
2022-11-12T07:03:12.071Z,0.00
2022-11-12T07:04:11.063Z,0.00
2022-11-12T07:05:11.060Z,0.00
2022-11-12T07:06:14.070Z,0.00
2022-11-12T07:07:11.309Z,0.00
2022-11-12T07:08:11.064Z,0.00
2022-11-12T07:09:11.062Z,0.00
2022-11-12T07:10:11.066Z,0.00
2022-11-12T07:11:11.062Z,0.00
2022-11-12T07:12:11.065Z,0.00
2022-11-12T07:13:11.072Z,0.00
2022-11-12T07:14:11.065Z,0.00
2022-11-12T07:15:11.061Z,0.00
2022-11-12T07:16:11.073Z,0.00
2022-11-12T07:17:11.065Z,0.00
2022-11-12T07:18:11.062Z,0.00
2022-11-12T07:19:11.066Z,0.00
2022-11-12T07:20:11.064Z,0.00
2022-11-12T07:21:11.059Z,0.00
2022-11-12T07:22:11.058Z,0.00
2022-11-12T07:23:11.060Z,0.00
2022-11-12T07:24:11.058Z,0.00
2022-11-12T07:25:11.059Z,0.00
2022-11-12T07:26:17.061Z,0.00
2022-11-12T07:27:11.059Z,0.00
2022-11-12T07:28:11.061Z,0.00
2022-11-12T07:29:11.445Z,0.00
2022-11-12T07:30:11.059Z,0.00
2022-11-12T07:31:12.061Z,0.00
2022-11-12T07:32:11.070Z,0.00
2022-11-12T07:33:11.067Z,0.00
2022-11-12T07:34:11.057Z,0.00
2022-11-12T07:35:11.070Z,0.00
2022-11-12T07:36:15.060Z,0.00
2022-11-12T07:37:11.072Z,0.00
2022-11-12T07:38:11.069Z,0.00
2022-11-12T07:39:11.108Z,0.00
2022-11-12T07:40:11.063Z,0.00
2022-11-12T07:41:19.061Z,0.00
2022-11-12T07:42:11.067Z,0.00
2022-11-12T07:43:11.062Z,0.00
2022-11-12T07:44:11.062Z,0.01
2022-11-12T07:45:11.062Z,0.00
2022-11-12T07:46:15.063Z,0.01
2022-11-12T07:47:11.060Z,0.01
2022-11-12T07:48:11.063Z,0.01
2022-11-12T07:49:11.071Z,0.01
2022-11-12T07:50:11.061Z,0.01
2022-11-12T07:51:15.064Z,0.01
2022-11-12T07:52:11.069Z,0.01
2022-11-12T07:53:11.063Z,0.01
2022-11-12T07:54:11.063Z,0.02
2022-11-12T07:55:11.064Z,0.02
2022-11-12T07:56:12.071Z,0.03
2022-11-12T07:57:11.064Z,0.03
2022-11-12T07:58:11.061Z,0.04
2022-11-12T07:59:11.071Z,0.04
2022-11-12T08:00:11.064Z,0.04
2022-11-12T08:01:21.142Z,0.04
2022-11-12T08:02:13.064Z,0.03
2022-11-12T08:03:11.072Z,0.04
2022-11-12T08:04:11.064Z,0.04
2022-11-12T08:05:16.395Z,0.04
2022-11-12T08:06:13.179Z,0.04
2022-11-12T08:07:11.184Z,0.04
2022-11-12T08:08:11.109Z,0.05
2022-11-12T08:09:11.063Z,0.05
2022-11-12T08:10:11.066Z,0.05
2022-11-12T08:11:11.064Z,0.05
2022-11-12T08:12:11.064Z,0.05
2022-11-12T08:13:11.073Z,0.05
2022-11-12T08:14:11.063Z,0.05
2022-11-12T08:15:11.064Z,0.05
2022-11-12T08:16:11.067Z,0.06
2022-11-12T08:17:11.069Z,0.06
2022-11-12T08:18:11.062Z,0.05
2022-11-12T08:19:11.066Z,0.05
2022-11-12T08:20:11.068Z,0.06
2022-11-12T08:21:11.057Z,0.06
2022-11-12T08:22:11.059Z,0.07
2022-11-12T08:23:11.068Z,0.07
2022-11-12T08:24:11.059Z,0.05
2022-11-12T08:25:11.063Z,0.05
2022-11-12T08:26:12.062Z,0.06
2022-11-12T08:27:11.061Z,0.06
2022-11-12T08:28:11.060Z,0.05
2022-11-12T08:29:11.062Z,0.06
2022-11-12T08:30:11.062Z,0.06
2022-11-12T08:31:14.059Z,0.06
2022-11-12T08:32:11.064Z,0.07
2022-11-12T08:33:11.061Z,0.07
2022-11-12T08:34:18.656Z,0.06
2022-11-12T08:35:13.072Z,0.06
2022-11-12T08:36:12.070Z,0.06
2022-11-12T08:37:11.061Z,0.06
2022-11-12T08:38:11.056Z,0.05
2022-11-12T08:39:11.065Z,0.04
2022-11-12T08:40:11.063Z,0.03
2022-11-12T08:41:11.066Z,0.03
2022-11-12T08:42:11.060Z,0.03
2022-11-12T08:43:11.062Z,0.03
2022-11-12T08:44:11.060Z,0.04
2022-11-12T08:45:11.060Z,0.04
2022-11-12T08:46:11.064Z,0.04
2022-11-12T08:47:11.058Z,0.05
2022-11-12T08:48:11.063Z,0.04
2022-11-12T08:49:11.069Z,0.05
2022-11-12T08:50:11.063Z,0.05
2022-11-12T08:51:11.062Z,0.06
2022-11-12T08:52:11.073Z,0.06
2022-11-12T08:53:13.061Z,0.06
2022-11-12T08:54:11.064Z,0.06
2022-11-12T08:55:11.069Z,0.07
2022-11-12T08:56:11.063Z,0.07
2022-11-12T08:57:11.058Z,0.07
2022-11-12T08:58:11.069Z,0.06
2022-11-12T08:59:11.063Z,0.07
2022-11-12T09:00:13.063Z,0.06
2022-11-12T09:01:11.128Z,0.06
2022-11-12T09:02:13.069Z,0.06
2022-11-12T09:03:14.065Z,0.05
2022-11-12T09:04:11.060Z,0.05
2022-11-12T09:05:11.066Z,0.05
2022-11-12T09:06:11.065Z,0.06
2022-11-12T09:07:28.610Z,0.05
2022-11-12T09:08:13.187Z,0.06
2022-11-12T09:09:11.073Z,0.05
2022-11-12T09:10:11.063Z,0.05
2022-11-12T09:11:11.070Z,0.05
2022-11-12T09:12:18.081Z,0.06
2022-11-12T09:13:13.135Z,0.06
2022-11-12T09:14:11.104Z,0.06
2022-11-12T09:15:36.993Z,0.06
2022-11-12T09:16:13.091Z,0.06
2022-11-12T09:17:11.064Z,0.07
2022-11-12T09:18:12.078Z,0.06
2022-11-12T09:19:11.066Z,0.07
2022-11-12T09:20:11.068Z,0.07
2022-11-12T09:21:11.055Z,0.07
2022-11-12T09:22:11.062Z,0.07
2022-11-12T09:23:14.064Z,0.07
2022-11-12T09:24:11.057Z,0.06
2022-11-12T09:25:11.059Z,0.07
2022-11-12T09:26:11.061Z,0.07
2022-11-12T09:27:11.060Z,0.07
2022-11-12T09:28:11.059Z,0.07
2022-11-12T09:29:11.066Z,0.08
2022-11-12T09:30:11.062Z,0.08
2022-11-12T09:31:11.055Z,0.07
2022-11-12T09:32:11.060Z,0.09
2022-11-12T09:33:11.062Z,0.08
2022-11-12T09:34:11.055Z,0.09
2022-11-12T09:35:11.062Z,0.10
2022-11-12T09:36:11.061Z,0.10
2022-11-12T09:37:11.060Z,0.09
2022-11-12T09:38:11.061Z,0.09
2022-11-12T09:39:11.060Z,0.09
2022-11-12T09:40:18.058Z,0.10
2022-11-12T09:41:21.059Z,0.10
2022-11-12T09:42:15.063Z,0.11
2022-11-12T09:43:23.061Z,0.12
2022-11-12T09:44:18.062Z,0.13
2022-11-12T09:45:18.061Z,0.13
2022-11-12T09:46:27.758Z,0.13
2022-11-12T09:47:21.076Z,0.14
2022-11-12T09:48:11.069Z,0.14
2022-11-12T09:49:19.059Z,0.15
2022-11-12T09:50:20.060Z,0.14
2022-11-12T09:51:21.061Z,0.15
2022-11-12T09:52:16.061Z,0.14
2022-11-12T09:53:18.064Z,0.15
2022-11-12T09:54:19.062Z,0.15
2022-11-12T09:55:19.062Z,0.16
2022-11-12T09:56:13.064Z,0.15
2022-11-12T09:57:15.064Z,0.14
2022-11-12T09:58:13.066Z,0.14
2022-11-12T09:59:15.060Z,0.13
2022-11-12T10:00:16.063Z,0.14
2022-11-12T10:01:16.104Z,0.14
2022-11-12T10:02:19.064Z,0.14
2022-11-12T10:03:18.061Z,0.12
2022-11-12T10:04:19.061Z,0.14
2022-11-12T10:05:23.064Z,0.14
2022-11-12T10:06:19.421Z,0.14
2022-11-12T10:07:21.071Z,0.13
2022-11-12T10:08:19.064Z,0.14
2022-11-12T10:09:17.062Z,0.16
2022-11-12T10:10:15.061Z,0.16
2022-11-12T10:11:19.067Z,0.16
2022-11-12T10:12:23.064Z,0.14
2022-11-12T10:13:19.066Z,0.14
2022-11-12T10:14:21.063Z,0.14
2022-11-12T10:15:23.067Z,0.14
2022-11-12T10:16:23.063Z,0.15
2022-11-12T10:17:19.067Z,0.12
2022-11-12T10:18:20.074Z,0.14
2022-11-12T10:19:21.064Z,0.12
2022-11-12T10:20:22.065Z,0.14
2022-11-12T10:21:23.060Z,0.14
2022-11-12T10:22:19.064Z,0.15
2022-11-12T10:23:17.060Z,0.14
2022-11-12T10:24:11.071Z,0.14
2022-11-12T10:25:18.064Z,0.11
2022-11-12T10:26:14.085Z,0.10
2022-11-12T10:27:19.063Z,0.11
2022-11-12T10:28:19.069Z,0.12
2022-11-12T10:29:21.064Z,0.14
2022-11-12T10:30:17.059Z,0.15
2022-11-12T10:31:13.056Z,0.15
2022-11-12T10:32:15.064Z,0.14
2022-11-12T10:33:15.068Z,0.13
2022-11-12T10:34:19.062Z,0.14
2022-11-12T10:35:11.063Z,0.17
2022-11-12T10:36:21.064Z,0.16
2022-11-12T10:37:19.079Z,0.16
2022-11-12T10:38:16.065Z,0.16
2022-11-12T10:39:11.062Z,0.18
2022-11-12T10:40:19.065Z,0.17
2022-11-12T10:41:21.065Z,0.16
2022-11-12T10:42:14.062Z,0.17
2022-11-12T10:43:21.063Z,0.18
2022-11-12T10:44:14.167Z,0.16
2022-11-12T10:45:20.068Z,0.14
2022-11-12T10:46:19.069Z,0.15
2022-11-12T10:47:21.064Z,0.13
2022-11-12T10:48:23.074Z,0.12
2022-11-12T10:49:21.102Z,0.14
2022-11-12T10:50:19.065Z,0.15
2022-11-12T10:51:19.066Z,0.15
2022-11-12T10:52:19.064Z,0.17
2022-11-12T10:53:12.065Z,0.16
2022-11-12T10:54:19.060Z,0.15
2022-11-12T10:55:21.066Z,0.15
2022-11-12T10:56:19.072Z,0.20
2022-11-12T10:57:19.067Z,0.19
2022-11-12T10:58:17.064Z,0.17
2022-11-12T10:59:17.065Z,0.20
2022-11-12T11:00:18.074Z,0.16
2022-11-12T11:01:17.163Z,0.17
2022-11-12T11:02:18.147Z,0.16
2022-11-12T11:03:19.063Z,0.15
2022-11-12T11:04:21.062Z,0.18
2022-11-12T11:05:19.065Z,0.21
2022-11-12T11:06:19.074Z,0.17
2022-11-12T11:07:21.177Z,0.16
2022-11-12T11:08:12.067Z,0.18
2022-11-12T11:09:15.065Z,0.23
2022-11-12T11:10:19.065Z,0.21
2022-11-12T11:11:21.075Z,0.15
2022-11-12T11:12:19.067Z,0.12
2022-11-12T11:13:18.068Z,0.14
2022-11-12T11:14:19.067Z,0.18
2022-11-12T11:15:19.073Z,0.20
2022-11-12T11:16:15.074Z,0.14
2022-11-12T11:17:18.068Z,0.12
2022-11-12T11:18:12.065Z,0.12
2022-11-12T11:19:11.067Z,0.13
2022-11-12T11:20:19.070Z,0.15
2022-11-12T11:21:19.060Z,0.16
2022-11-12T11:22:19.062Z,0.15
2022-11-12T11:23:21.062Z,0.16
2022-11-12T11:24:19.066Z,0.19
2022-11-12T11:25:19.075Z,0.19
2022-11-12T11:26:19.061Z,0.17
2022-11-12T11:27:18.065Z,0.16
2022-11-12T11:28:19.061Z,0.19
2022-11-12T11:29:19.063Z,0.20
2022-11-12T11:30:12.066Z,0.21
2022-11-12T11:31:19.062Z,0.21
2022-11-12T11:32:19.060Z,0.19
2022-11-12T11:33:19.062Z,0.19
2022-11-12T11:34:19.077Z,0.20
2022-11-12T11:35:21.071Z,0.20
2022-11-12T11:36:19.064Z,0.24
2022-11-12T11:37:19.062Z,0.19
2022-11-12T11:38:21.068Z,0.17
2022-11-12T11:39:19.064Z,0.23
2022-11-12T11:40:21.071Z,0.19
2022-11-12T11:41:21.067Z,0.22
2022-11-12T11:42:19.065Z,0.23
2022-11-12T11:43:19.061Z,0.23
2022-11-12T11:44:19.125Z,0.19
2022-11-12T11:45:21.068Z,0.18
2022-11-12T11:46:21.073Z,0.15
2022-11-12T11:47:19.068Z,0.10
2022-11-12T11:48:19.065Z,0.11
2022-11-12T11:49:19.063Z,0.10
2022-11-12T11:50:21.070Z,0.09
2022-11-12T11:51:24.805Z,0.08
2022-11-12T11:52:21.104Z,0.07
2022-11-12T11:53:19.064Z,0.08
2022-11-12T11:54:19.062Z,0.10
2022-11-12T11:55:19.068Z,0.11
2022-11-12T11:56:19.068Z,0.09
2022-11-12T11:57:16.067Z,0.11
2022-11-12T11:58:19.065Z,0.17
2022-11-12T11:59:21.063Z,0.17
2022-11-12T12:00:19.068Z,0.14
2022-11-12T12:01:19.068Z,0.17
2022-11-12T12:02:21.067Z,0.17
2022-11-12T12:03:19.152Z,0.17
2022-11-12T12:04:19.066Z,0.17
2022-11-12T12:05:23.078Z,0.16
2022-11-12T12:06:19.069Z,0.17
2022-11-12T12:07:21.162Z,0.16
2022-11-12T12:08:19.074Z,0.16
2022-11-12T12:09:19.066Z,0.16
2022-11-12T12:10:19.064Z,0.16
2022-11-12T12:11:15.069Z,0.16
2022-11-12T12:12:23.069Z,0.15
2022-11-12T12:13:18.069Z,0.15
2022-11-12T12:14:21.065Z,0.16
2022-11-12T12:15:21.067Z,0.15
2022-11-12T12:16:19.069Z,0.14
2022-11-12T12:17:19.076Z,0.15
2022-11-12T12:18:19.070Z,0.15
2022-11-12T12:19:21.068Z,0.15
2022-11-12T12:20:19.069Z,0.14
2022-11-12T12:21:16.063Z,0.14
2022-11-12T12:22:15.064Z,0.14
2022-11-12T12:23:23.060Z,0.14
2022-11-12T12:24:19.060Z,0.14
2022-11-12T12:25:16.056Z,0.14
2022-11-12T12:26:15.063Z,0.14
2022-11-12T12:27:19.062Z,0.13
2022-11-12T12:28:19.062Z,0.13
2022-11-12T12:29:18.057Z,0.13
2022-11-12T12:30:18.063Z,0.13
2022-11-12T12:31:15.069Z,0.13
2022-11-12T12:32:21.658Z,0.13
2022-11-12T12:33:23.155Z,0.13
2022-11-12T12:34:19.062Z,0.13
2022-11-12T12:35:19.070Z,0.13
2022-11-12T12:36:12.063Z,0.13
2022-11-12T12:37:21.062Z,0.12
2022-11-12T12:38:19.065Z,0.12
2022-11-12T12:39:18.063Z,0.12
2022-11-12T12:40:19.063Z,0.12
2022-11-12T12:41:19.065Z,0.12
2022-11-12T12:42:20.064Z,0.12
2022-11-12T12:43:22.065Z,0.12
2022-11-12T12:44:11.065Z,0.12
2022-11-12T12:45:19.075Z,0.12
2022-11-12T12:46:12.068Z,0.12
2022-11-12T12:47:12.063Z,0.11
2022-11-12T12:48:19.061Z,0.11
2022-11-12T12:49:17.075Z,0.11
2022-11-12T12:50:15.064Z,0.11
2022-11-12T12:51:11.061Z,0.11
2022-11-12T12:52:13.066Z,0.11
2022-11-12T12:53:23.065Z,0.10
2022-11-12T12:54:19.064Z,0.11
2022-11-12T12:55:19.062Z,0.10
2022-11-12T12:56:19.060Z,0.10
2022-11-12T12:57:19.065Z,0.10
2022-11-12T12:58:19.071Z,0.10
2022-11-12T12:59:19.067Z,0.10
2022-11-12T13:00:19.065Z,0.10
2022-11-12T13:01:19.147Z,0.10
2022-11-12T13:02:19.068Z,0.10
2022-11-12T13:03:12.076Z,0.10
2022-11-12T13:04:12.065Z,0.10
2022-11-12T13:05:19.065Z,0.10
2022-11-12T13:06:19.073Z,0.09
2022-11-12T13:07:11.268Z,0.09
2022-11-12T13:08:14.069Z,0.09
2022-11-12T13:09:19.065Z,0.09
2022-11-12T13:10:19.078Z,0.09
2022-11-12T13:11:11.066Z,0.09
2022-11-12T13:12:16.067Z,0.08
2022-11-12T13:13:21.069Z,0.09
2022-11-12T13:14:19.070Z,0.09
2022-11-12T13:15:13.076Z,0.08
2022-11-12T13:16:11.068Z,0.08
2022-11-12T13:17:13.064Z,0.08
2022-11-12T13:18:16.907Z,0.08